createdAt,value
2018-06-17T00:00:16.855Z,0.00
2018-06-17T00:01:17.086Z,0.00
2018-06-17T00:02:17.310Z,0.00
2018-06-17T00:03:17.542Z,0.00
2018-06-17T00:04:17.776Z,0.00
2018-06-17T00:05:18.001Z,0.00
2018-06-17T00:06:18.231Z,0.00
2018-06-17T00:07:18.466Z,0.00
2018-06-17T00:08:19.505Z,0.00
2018-06-17T00:09:18.973Z,0.00
2018-06-17T00:10:19.203Z,0.00
2018-06-17T00:11:19.431Z,0.00
2018-06-17T00:12:19.663Z,0.00
2018-06-17T00:13:19.896Z,0.00
2018-06-17T00:14:20.125Z,0.00
2018-06-17T00:15:20.359Z,0.00
2018-06-17T00:16:20.584Z,0.00
2018-06-17T00:17:20.818Z,0.00
2018-06-17T00:18:21.045Z,0.00
2018-06-17T00:19:21.279Z,0.00
2018-06-17T00:20:21.506Z,0.00
2018-06-17T00:21:21.736Z,0.00
2018-06-17T00:22:21.965Z,0.00
2018-06-17T00:23:22.198Z,0.00
2018-06-17T00:24:22.428Z,0.00
2018-06-17T00:25:22.659Z,0.00
2018-06-17T00:26:22.889Z,0.00
2018-06-17T00:27:23.113Z,0.00
2018-06-17T00:28:23.344Z,0.00
2018-06-17T00:29:23.574Z,0.00
2018-06-17T00:30:23.805Z,0.00
2018-06-17T00:31:24.031Z,0.00
2018-06-17T00:32:24.260Z,0.00
2018-06-17T00:33:24.487Z,0.00
2018-06-17T00:34:24.723Z,0.00
2018-06-17T00:35:24.959Z,0.00
2018-06-17T00:36:25.183Z,0.00
2018-06-17T00:37:25.420Z,0.00
2018-06-17T00:38:25.643Z,0.00
2018-06-17T00:39:25.875Z,0.00
2018-06-17T00:40:26.101Z,0.00
2018-06-17T00:41:26.331Z,0.00
2018-06-17T00:42:26.563Z,0.00
2018-06-17T00:43:26.792Z,0.00
2018-06-17T00:44:27.027Z,0.00
2018-06-17T00:45:27.254Z,0.00
2018-06-17T00:46:27.485Z,0.00
2018-06-17T00:47:27.717Z,0.00
2018-06-17T00:48:27.947Z,0.00
2018-06-17T00:49:28.174Z,0.00
2018-06-17T00:50:28.404Z,0.00
2018-06-17T00:51:28.634Z,0.00
2018-06-17T00:52:28.865Z,0.00
2018-06-17T00:53:29.094Z,0.00
2018-06-17T00:54:29.327Z,0.00
2018-06-17T00:55:29.558Z,0.00
2018-06-17T00:56:29.791Z,0.00
2018-06-17T00:57:30.021Z,0.00
2018-06-17T00:58:30.250Z,0.00
2018-06-17T00:59:30.481Z,0.00
2018-06-17T01:00:30.705Z,0.00
2018-06-17T01:01:30.935Z,0.00
2018-06-17T01:02:31.164Z,0.00
2018-06-17T01:03:31.396Z,0.00
2018-06-17T01:04:31.630Z,0.00
2018-06-17T01:05:31.857Z,0.00
2018-06-17T01:06:32.081Z,0.00
2018-06-17T01:07:32.318Z,0.00
2018-06-17T01:08:32.546Z,0.00
2018-06-17T01:09:32.778Z,0.00
2018-06-17T01:10:33.008Z,0.00
2018-06-17T01:11:33.234Z,0.00
2018-06-17T01:12:33.468Z,0.00
2018-06-17T01:13:33.700Z,0.00
2018-06-17T01:14:33.939Z,0.00
2018-06-17T01:15:34.168Z,0.00
2018-06-17T01:16:34.388Z,0.00
2018-06-17T01:17:34.616Z,0.00
2018-06-17T01:18:34.847Z,0.00
2018-06-17T01:19:35.074Z,0.00
2018-06-17T01:20:35.304Z,0.00
2018-06-17T01:21:35.533Z,0.00
2018-06-17T01:22:35.762Z,0.00
2018-06-17T01:23:36.014Z,0.00
2018-06-17T01:24:36.229Z,0.00
2018-06-17T01:25:36.462Z,0.00
2018-06-17T01:26:36.691Z,0.00
2018-06-17T01:27:36.921Z,0.00
2018-06-17T01:28:37.144Z,0.00
2018-06-17T01:29:37.375Z,0.00
2018-06-17T01:30:37.605Z,0.00
2018-06-17T01:31:37.841Z,0.00
2018-06-17T01:32:38.069Z,0.00
2018-06-17T01:33:38.295Z,0.00
2018-06-17T01:34:38.524Z,0.00
2018-06-17T01:35:38.759Z,0.00
2018-06-17T01:36:38.987Z,0.00
2018-06-17T01:37:39.221Z,0.00
2018-06-17T01:38:39.445Z,0.00
2018-06-17T01:39:39.676Z,0.00
2018-06-17T01:40:39.907Z,0.00
2018-06-17T01:41:40.144Z,0.00
2018-06-17T01:42:40.368Z,0.00
2018-06-17T01:43:40.596Z,0.00
2018-06-17T01:44:40.829Z,0.00
2018-06-17T01:45:41.060Z,0.00
2018-06-17T01:46:41.291Z,0.00
2018-06-17T01:47:41.523Z,0.00
2018-06-17T01:48:41.762Z,0.00
2018-06-17T01:49:41.994Z,0.00
2018-06-17T01:50:42.281Z,0.00
2018-06-17T01:51:42.457Z,0.00
2018-06-17T01:52:42.683Z,0.00
2018-06-17T01:53:42.916Z,0.00
2018-06-17T01:54:43.149Z,0.00
2018-06-17T01:55:43.376Z,0.00
2018-06-17T01:56:43.608Z,0.00
2018-06-17T01:57:43.840Z,0.00
2018-06-17T01:58:44.073Z,0.00
2018-06-17T01:59:44.298Z,0.00
2018-06-17T02:00:44.526Z,0.00
2018-06-17T02:01:44.751Z,0.00
2018-06-17T02:02:44.987Z,0.00
2018-06-17T02:03:45.214Z,0.00
2018-06-17T02:04:45.443Z,0.00
2018-06-17T02:05:45.674Z,0.00
2018-06-17T02:06:45.922Z,0.00
2018-06-17T02:07:46.151Z,0.00
2018-06-17T02:08:46.384Z,0.00
2018-06-17T02:09:46.611Z,0.00
2018-06-17T02:10:46.845Z,0.00
2018-06-17T02:11:47.073Z,0.00
2018-06-17T02:12:47.352Z,0.00
2018-06-17T02:13:47.527Z,0.00
2018-06-17T02:14:47.759Z,0.00
2018-06-17T02:15:47.991Z,0.00
2018-06-17T02:16:48.216Z,0.00
2018-06-17T02:17:48.445Z,0.00
2018-06-17T02:18:48.675Z,0.00
2018-06-17T02:19:48.905Z,0.00
2018-06-17T02:20:49.130Z,0.00
2018-06-17T02:21:49.362Z,4.00
2018-06-17T02:22:49.589Z,4.00
2018-06-17T02:23:49.819Z,4.00
2018-06-17T02:24:50.052Z,4.00
2018-06-17T02:25:50.280Z,0.00
2018-06-17T02:26:50.507Z,0.00
2018-06-17T02:27:50.740Z,4.00
2018-06-17T02:28:50.972Z,4.00
2018-06-17T02:29:51.198Z,0.00
2018-06-17T02:30:51.424Z,4.00
2018-06-17T02:31:51.655Z,8.00
2018-06-17T02:32:51.885Z,4.00
2018-06-17T02:33:52.113Z,4.00
2018-06-17T02:34:52.342Z,8.00
2018-06-17T02:35:52.581Z,8.00
2018-06-17T02:36:52.801Z,8.00
2018-06-17T02:37:53.033Z,12.00
2018-06-17T02:38:53.261Z,12.00
2018-06-17T02:39:53.490Z,16.00
2018-06-17T02:40:53.722Z,16.00
2018-06-17T02:41:53.951Z,20.00
2018-06-17T02:42:54.181Z,16.00
2018-06-17T02:43:54.409Z,20.00
2018-06-17T02:44:54.637Z,20.00
2018-06-17T02:45:54.866Z,24.00
2018-06-17T02:46:55.097Z,24.00
2018-06-17T02:47:55.326Z,24.00
2018-06-17T02:48:55.557Z,28.00
2018-06-17T02:49:55.784Z,28.00
2018-06-17T02:50:56.015Z,28.00
2018-06-17T02:51:56.241Z,32.00
2018-06-17T02:52:56.470Z,36.00
2018-06-17T02:53:56.703Z,40.00
2018-06-17T02:54:56.929Z,44.00
2018-06-17T02:55:57.162Z,52.00
2018-06-17T02:56:57.387Z,60.00
2018-06-17T02:57:57.620Z,72.00
2018-06-17T02:58:57.850Z,84.00
2018-06-17T02:59:58.085Z,92.00
2018-06-17T03:00:58.313Z,104.00
2018-06-17T03:01:58.541Z,112.00
2018-06-17T03:02:58.770Z,116.00
2018-06-17T03:03:59.019Z,124.00
2018-06-17T03:04:59.232Z,128.00
2018-06-17T03:05:59.468Z,128.00
2018-06-17T03:06:59.690Z,132.00
2018-06-17T03:07:59.919Z,136.00
2018-06-17T03:09:00.155Z,144.00
2018-06-17T03:10:00.382Z,148.00
2018-06-17T03:11:00.612Z,144.00
2018-06-17T03:12:00.843Z,148.00
2018-06-17T03:13:01.073Z,156.00
2018-06-17T03:14:01.304Z,164.00
2018-06-17T03:15:01.538Z,168.00
2018-06-17T03:16:01.763Z,160.00
2018-06-17T03:17:01.992Z,148.00
2018-06-17T03:18:02.221Z,136.00
2018-06-17T03:19:02.451Z,128.00
2018-06-17T03:20:02.680Z,128.00
2018-06-17T03:21:02.908Z,128.00
2018-06-17T03:22:03.136Z,136.00
2018-06-17T03:23:03.366Z,132.00
2018-06-17T03:24:03.596Z,132.00
2018-06-17T03:25:03.826Z,128.00
2018-06-17T03:26:04.057Z,124.00
2018-06-17T03:27:04.284Z,128.00
2018-06-17T03:28:04.526Z,128.00
2018-06-17T03:29:04.746Z,136.00
2018-06-17T03:30:04.979Z,132.00
2018-06-17T03:31:05.208Z,124.00
2018-06-17T03:32:05.438Z,120.00
2018-06-17T03:33:05.667Z,124.00
2018-06-17T03:34:05.897Z,132.00
2018-06-17T03:35:06.127Z,140.00
2018-06-17T03:36:06.358Z,148.00
2018-06-17T03:37:06.590Z,148.00
2018-06-17T03:38:06.820Z,148.00
2018-06-17T03:39:07.050Z,156.00
2018-06-17T03:40:07.280Z,172.00
2018-06-17T03:41:07.510Z,196.00
2018-06-17T03:42:07.740Z,228.00
2018-06-17T03:43:07.969Z,272.00
2018-06-17T03:44:08.201Z,312.00
2018-06-17T03:45:08.432Z,340.00
2018-06-17T03:46:08.664Z,364.00
2018-06-17T03:47:08.898Z,384.00
2018-06-17T03:48:09.130Z,420.00
2018-06-17T03:49:09.361Z,480.00
2018-06-17T03:50:09.590Z,548.00
2018-06-17T03:51:09.821Z,580.00
2018-06-17T03:52:10.054Z,596.00
2018-06-17T03:53:10.289Z,632.00
2018-06-17T03:54:10.522Z,680.00
2018-06-17T03:55:10.755Z,720.00
2018-06-17T03:56:10.983Z,772.00
2018-06-17T03:57:11.214Z,804.00
2018-06-17T03:58:11.432Z,796.00
2018-06-17T03:59:11.664Z,792.00
2018-06-17T04:00:11.894Z,816.00
2018-06-17T04:01:12.123Z,892.00
2018-06-17T04:02:12.351Z,1000.00
2018-06-17T04:03:12.586Z,1104.00
2018-06-17T04:04:12.817Z,1160.00
2018-06-17T04:05:13.046Z,1136.00
2018-06-17T04:06:13.277Z,1100.00
2018-06-17T04:07:13.508Z,1128.00
2018-06-17T04:08:13.745Z,1232.00
2018-06-17T04:09:13.969Z,1376.00
2018-06-17T04:10:14.210Z,1488.00
2018-06-17T04:11:14.424Z,1436.00
2018-06-17T04:12:14.653Z,1200.00
2018-06-17T04:13:14.886Z,1004.00
2018-06-17T04:14:15.114Z,888.00
2018-06-17T04:15:15.351Z,816.00
2018-06-17T04:16:15.578Z,776.00
2018-06-17T04:17:15.809Z,760.00
2018-06-17T04:18:16.040Z,768.00
2018-06-17T04:19:16.268Z,776.00
2018-06-17T04:20:16.499Z,796.00
2018-06-17T04:21:16.729Z,820.00
2018-06-17T04:22:16.961Z,852.00
2018-06-17T04:23:17.191Z,916.00
2018-06-17T04:24:17.419Z,1020.00
2018-06-17T04:25:17.655Z,1084.00
2018-06-17T04:26:17.876Z,1112.00
2018-06-17T04:27:18.110Z,1164.00
2018-06-17T04:28:18.340Z,1196.00
2018-06-17T04:29:18.570Z,1220.00
2018-06-17T04:30:18.798Z,1276.00
2018-06-17T04:31:19.027Z,1364.00
2018-06-17T04:32:19.256Z,1508.00
2018-06-17T04:33:19.484Z,1772.00
2018-06-17T04:34:19.717Z,2120.00
2018-06-17T04:35:19.946Z,2504.00
2018-06-17T04:36:20.181Z,2860.00
2018-06-17T04:37:20.413Z,3032.00
2018-06-17T04:38:20.645Z,2940.00
2018-06-17T04:39:20.876Z,2656.00
2018-06-17T04:40:21.105Z,2284.00
2018-06-17T04:41:21.340Z,2016.00
2018-06-17T04:42:21.566Z,1876.00
2018-06-17T04:43:21.798Z,1836.00
2018-06-17T04:44:22.027Z,1792.00
2018-06-17T04:45:22.267Z,1748.00
2018-06-17T04:46:22.503Z,1708.00
2018-06-17T04:47:22.728Z,1712.00
2018-06-17T04:48:22.984Z,1744.00
2018-06-17T04:49:23.190Z,1708.00
2018-06-17T04:50:23.421Z,1716.00
2018-06-17T04:51:23.652Z,1684.00
2018-06-17T04:52:23.882Z,1684.00
2018-06-17T04:53:24.114Z,1656.00
2018-06-17T04:54:24.342Z,1664.00
2018-06-17T04:55:24.573Z,1760.00
2018-06-17T04:56:24.804Z,1912.00
2018-06-17T04:57:25.036Z,2084.00
2018-06-17T04:58:25.259Z,2196.00
2018-06-17T04:59:25.491Z,2260.00
2018-06-17T05:00:25.721Z,2368.00
2018-06-17T05:01:25.949Z,2436.00
2018-06-17T05:02:26.179Z,2384.00
2018-06-17T05:03:26.408Z,2384.00
2018-06-17T05:04:26.643Z,2404.00
2018-06-17T05:05:26.873Z,2424.00
2018-06-17T05:06:27.105Z,2468.00
2018-06-17T05:07:27.336Z,2516.00
2018-06-17T05:08:27.567Z,2596.00
2018-06-17T05:09:27.801Z,2700.00
2018-06-17T05:10:28.029Z,2812.00
2018-06-17T05:11:28.309Z,2904.00
2018-06-17T05:12:28.493Z,2996.00
2018-06-17T05:13:28.722Z,3192.00
2018-06-17T05:14:28.951Z,3496.00
2018-06-17T05:15:29.183Z,3644.00
2018-06-17T05:16:29.414Z,3692.00
2018-06-17T05:17:29.646Z,3924.00
2018-06-17T05:18:29.877Z,4884.00
2018-06-17T05:19:30.110Z,4208.00
2018-06-17T05:20:30.340Z,4184.00
2018-06-17T05:21:30.573Z,4188.00
2018-06-17T05:22:30.801Z,4296.00
2018-06-17T05:23:31.038Z,4444.00
2018-06-17T05:24:31.262Z,4620.00
2018-06-17T05:25:31.494Z,4852.00
2018-06-17T05:26:31.726Z,5156.00
2018-06-17T05:27:31.959Z,5468.00
2018-06-17T05:28:32.194Z,5900.00
2018-06-17T05:29:32.425Z,5904.00
2018-06-17T05:30:32.658Z,5836.00
2018-06-17T05:31:32.887Z,6068.00
2018-06-17T05:32:33.117Z,8384.00
2018-06-17T05:33:33.348Z,7340.00
2018-06-17T05:34:33.581Z,10200.00
2018-06-17T05:35:33.810Z,9848.00
2018-06-17T05:36:34.043Z,11528.00
2018-06-17T05:37:34.273Z,6576.00
2018-06-17T05:38:34.505Z,6268.00
2018-06-17T05:39:34.736Z,6048.00
2018-06-17T05:40:34.968Z,6020.00
2018-06-17T05:41:35.201Z,6172.00
2018-06-17T05:42:35.431Z,8412.00
2018-06-17T05:43:35.665Z,6528.00
2018-06-17T05:44:35.896Z,6212.00
2018-06-17T05:45:36.129Z,6028.00
2018-06-17T05:46:36.363Z,5836.00
2018-06-17T05:47:36.625Z,7868.00
2018-06-17T05:48:36.826Z,5772.00
2018-06-17T05:49:37.061Z,5732.00
2018-06-17T05:50:37.291Z,6768.00
2018-06-17T05:51:37.525Z,6476.00
2018-06-17T05:52:37.758Z,6624.00
2018-06-17T05:53:37.991Z,6340.00
2018-06-17T05:54:38.228Z,6264.00
2018-06-17T05:55:38.470Z,6332.00
2018-06-17T05:56:38.685Z,6588.00
2018-06-17T05:57:38.918Z,6912.00
2018-06-17T05:58:39.153Z,7512.00
2018-06-17T05:59:39.386Z,7300.00
2018-06-17T06:00:39.614Z,7200.00
2018-06-17T06:01:39.849Z,7440.00
2018-06-17T06:02:40.080Z,8236.00
2018-06-17T06:03:40.315Z,10064.00
2018-06-17T06:04:40.550Z,10568.00
2018-06-17T06:05:40.783Z,10660.00
2018-06-17T06:06:41.013Z,9012.00
2018-06-17T06:07:41.247Z,12152.00
2018-06-17T06:08:41.478Z,12264.00
2018-06-17T06:09:41.713Z,9452.00
2018-06-17T06:10:41.953Z,8780.00
2018-06-17T06:11:42.186Z,7992.00
2018-06-17T06:12:42.421Z,7872.00
2018-06-17T06:13:42.652Z,7924.00
2018-06-17T06:14:42.885Z,9032.00
2018-06-17T06:15:43.121Z,7144.00
2018-06-17T06:16:43.350Z,7824.00
2018-06-17T06:17:43.585Z,6712.00
2018-06-17T06:18:43.819Z,6608.00
2018-06-17T06:19:44.054Z,6524.00
2018-06-17T06:20:44.289Z,6432.00
2018-06-17T06:21:44.522Z,6408.00
2018-06-17T06:22:44.755Z,6496.00
2018-06-17T06:23:44.990Z,6456.00
2018-06-17T06:24:45.280Z,6344.00
2018-06-17T06:25:45.454Z,6324.00
2018-06-17T06:26:45.687Z,6328.00
2018-06-17T06:27:45.928Z,6136.00
2018-06-17T06:28:46.155Z,5988.00
2018-06-17T06:29:46.391Z,5912.00
2018-06-17T06:30:46.622Z,5880.00
2018-06-17T06:31:46.861Z,5888.00
2018-06-17T06:32:47.090Z,6000.00
2018-06-17T06:33:47.323Z,6372.00
2018-06-17T06:34:47.559Z,6700.00
2018-06-17T06:35:47.793Z,6960.00
2018-06-17T06:36:48.025Z,7524.00
2018-06-17T06:37:48.262Z,8388.00
2018-06-17T06:38:48.497Z,9032.00
2018-06-17T06:39:48.732Z,9268.00
2018-06-17T06:40:48.969Z,9236.00
2018-06-17T06:41:49.194Z,9336.00
2018-06-17T06:42:49.419Z,9552.00
2018-06-17T06:43:49.648Z,9544.00
2018-06-17T06:44:49.881Z,9568.00
2018-06-17T06:45:51.089Z,10132.00
2018-06-17T06:46:50.317Z,10328.00
2018-06-17T06:47:50.547Z,11252.00
2018-06-17T06:48:50.777Z,11276.00
2018-06-17T06:49:51.013Z,11392.00
2018-06-17T06:50:51.289Z,11424.00
2018-06-17T06:51:51.484Z,10580.00
2018-06-17T06:52:51.728Z,10532.00
2018-06-17T06:53:51.947Z,10812.00
2018-06-17T06:54:52.185Z,11576.00
2018-06-17T06:55:52.416Z,13328.00
2018-06-17T06:56:52.664Z,13980.00
2018-06-17T06:57:52.889Z,13388.00
2018-06-17T06:58:53.115Z,12552.00
2018-06-17T06:59:53.347Z,11964.00
2018-06-17T07:00:53.580Z,11552.00
2018-06-17T07:01:53.827Z,11328.00
2018-06-17T07:02:54.050Z,11272.00
2018-06-17T07:03:54.286Z,11360.00
2018-06-17T07:04:54.516Z,11520.00
2018-06-17T07:05:54.751Z,11924.00
2018-06-17T07:06:54.984Z,12652.00
2018-06-17T07:07:55.221Z,12652.00
2018-06-17T07:08:55.457Z,12628.00
2018-06-17T07:09:55.695Z,12892.00
2018-06-17T07:10:55.930Z,12532.00
2018-06-17T07:11:56.209Z,12212.00
2018-06-17T07:12:56.397Z,12056.00
2018-06-17T07:13:56.628Z,11196.00
2018-06-17T07:14:56.863Z,8868.00
2018-06-17T07:15:57.093Z,8480.00
2018-06-17T07:16:57.361Z,8460.00
2018-06-17T07:17:57.591Z,8820.00
2018-06-17T07:18:57.828Z,9148.00
2018-06-17T07:19:58.061Z,9368.00
2018-06-17T07:20:58.296Z,9508.00
2018-06-17T07:21:58.539Z,12292.00
2018-06-17T07:22:58.773Z,12072.00
2018-06-17T07:23:59.003Z,11852.00
2018-06-17T07:24:59.238Z,12324.00
2018-06-17T07:25:59.477Z,12392.00
2018-06-17T07:26:59.707Z,12204.00
2018-06-17T07:27:59.931Z,12164.00
2018-06-17T07:29:00.168Z,12040.00
2018-06-17T07:30:00.408Z,10564.00
2018-06-17T07:31:00.641Z,9480.00
2018-06-17T07:32:00.878Z,9068.00
2018-06-17T07:33:01.112Z,10280.00
2018-06-17T07:34:01.353Z,10192.00
2018-06-17T07:35:01.588Z,12132.00
2018-06-17T07:36:01.817Z,11996.00
2018-06-17T07:37:02.052Z,11680.00
2018-06-17T07:38:02.285Z,12104.00
2018-06-17T07:39:02.519Z,12388.00
2018-06-17T07:40:02.752Z,12348.00
2018-06-17T07:41:02.986Z,12296.00
2018-06-17T07:42:03.222Z,12304.00
2018-06-17T07:43:03.457Z,12536.00
2018-06-17T07:44:03.694Z,12924.00
2018-06-17T07:45:03.927Z,13088.00
2018-06-17T07:46:04.161Z,13184.00
2018-06-17T07:47:04.393Z,13256.00
2018-06-17T07:48:04.623Z,13300.00
2018-06-17T07:49:04.861Z,13316.00
2018-06-17T07:50:05.096Z,13440.00
2018-06-17T07:51:05.331Z,13456.00
2018-06-17T07:52:05.558Z,13308.00
2018-06-17T07:53:05.797Z,13124.00
2018-06-17T07:54:06.029Z,12724.00
2018-06-17T07:55:06.257Z,12508.00
2018-06-17T07:56:06.550Z,12396.00
2018-06-17T07:57:06.725Z,12260.00
2018-06-17T07:58:06.963Z,12268.00
2018-06-17T07:59:07.194Z,11996.00
2018-06-17T08:00:07.428Z,11784.00
2018-06-17T08:01:07.663Z,11692.00
2018-06-17T08:02:07.903Z,11636.00
2018-06-17T08:03:08.137Z,11564.00
2018-06-17T08:04:08.382Z,11544.00
2018-06-17T08:05:08.609Z,11500.00
2018-06-17T08:06:08.848Z,11316.00
2018-06-17T08:07:09.084Z,11188.00
2018-06-17T08:08:09.317Z,11096.00
2018-06-17T08:09:09.557Z,11048.00
2018-06-17T08:10:09.827Z,11036.00
2018-06-17T08:11:10.036Z,10984.00
2018-06-17T08:12:10.270Z,10876.00
2018-06-17T08:13:10.505Z,10796.00
2018-06-17T08:14:10.742Z,10820.00
2018-06-17T08:15:10.975Z,10800.00
2018-06-17T08:16:11.205Z,10780.00
2018-06-17T08:17:11.447Z,10936.00
2018-06-17T08:18:11.675Z,10788.00
2018-06-17T08:19:11.911Z,11148.00
2018-06-17T08:20:12.165Z,11156.00
2018-06-17T08:21:12.392Z,11232.00
2018-06-17T08:22:12.617Z,11360.00
2018-06-17T08:23:12.849Z,11376.00
2018-06-17T08:24:13.086Z,11460.00
2018-06-17T08:25:13.328Z,11428.00
2018-06-17T08:26:13.562Z,11440.00
2018-06-17T08:27:13.786Z,11580.00
2018-06-17T08:28:14.020Z,11856.00
2018-06-17T08:29:14.259Z,12076.00
2018-06-17T08:30:14.488Z,12156.00
2018-06-17T08:31:14.723Z,12380.00
2018-06-17T08:32:14.959Z,12816.00
2018-06-17T08:33:15.197Z,11172.00
2018-06-17T08:34:15.433Z,9540.00
2018-06-17T08:35:15.673Z,9496.00
2018-06-17T08:36:15.904Z,9560.00
2018-06-17T08:37:16.139Z,9752.00
2018-06-17T08:38:16.373Z,10080.00
2018-06-17T08:39:16.613Z,11972.00
2018-06-17T08:40:16.844Z,11296.00
2018-06-17T08:41:17.076Z,13028.00
2018-06-17T08:42:17.309Z,13396.00
2018-06-17T08:43:17.545Z,13144.00
2018-06-17T08:44:17.783Z,13088.00
2018-06-17T08:45:18.013Z,13304.00
2018-06-17T08:46:18.247Z,13272.00
2018-06-17T08:47:18.483Z,13240.00
2018-06-17T08:48:18.717Z,13128.00
2018-06-17T08:49:18.951Z,13228.00
2018-06-17T08:50:19.187Z,13628.00
2018-06-17T08:51:19.423Z,13776.00
2018-06-17T08:52:19.661Z,13436.00
2018-06-17T08:53:19.895Z,10312.00
2018-06-17T08:54:20.166Z,9824.00
2018-06-17T08:55:20.365Z,9624.00
2018-06-17T08:56:20.604Z,9664.00
2018-06-17T08:57:20.834Z,9616.00
2018-06-17T08:58:21.072Z,9648.00
2018-06-17T08:59:21.305Z,9640.00
2018-06-17T09:00:21.539Z,9528.00
2018-06-17T09:01:21.776Z,9476.00
2018-06-17T09:02:22.013Z,9464.00
2018-06-17T09:03:22.243Z,9524.00
2018-06-17T09:04:22.479Z,9632.00
2018-06-17T09:05:22.716Z,9736.00
2018-06-17T09:06:22.951Z,9860.00
2018-06-17T09:07:23.188Z,9972.00
2018-06-17T09:08:23.422Z,10088.00
2018-06-17T09:09:23.658Z,10100.00
2018-06-17T09:10:23.896Z,9932.00
2018-06-17T09:11:24.127Z,9648.00
2018-06-17T09:12:24.407Z,9324.00
2018-06-17T09:13:24.604Z,9084.00
2018-06-17T09:14:24.839Z,8912.00
2018-06-17T09:15:25.074Z,8816.00
2018-06-17T09:16:25.310Z,8956.00
2018-06-17T09:17:25.545Z,9284.00
2018-06-17T09:18:25.777Z,9732.00
2018-06-17T09:19:26.071Z,10264.00
2018-06-17T09:20:26.247Z,12788.00
2018-06-17T09:21:26.484Z,13684.00
2018-06-17T09:22:26.719Z,15488.00
2018-06-17T09:23:26.954Z,15328.00
2018-06-17T09:24:27.187Z,16256.00
2018-06-17T09:25:27.423Z,13732.00
2018-06-17T09:26:27.664Z,12820.00
2018-06-17T09:27:27.888Z,12388.00
2018-06-17T09:28:28.123Z,11548.00
2018-06-17T09:29:28.359Z,10732.00
2018-06-17T09:30:28.595Z,10176.00
2018-06-17T09:31:28.830Z,9888.00
2018-06-17T09:32:29.067Z,9820.00
2018-06-17T09:33:29.300Z,9664.00
2018-06-17T09:34:29.536Z,9436.00
2018-06-17T09:35:29.774Z,9220.00
2018-06-17T09:36:30.009Z,9076.00
2018-06-17T09:37:30.241Z,9052.00
2018-06-17T09:38:30.476Z,9012.00
2018-06-17T09:39:30.706Z,8972.00
2018-06-17T09:40:30.944Z,8920.00
2018-06-17T09:41:31.175Z,8836.00
2018-06-17T09:42:31.414Z,8600.00
2018-06-17T09:43:31.647Z,8372.00
2018-06-17T09:44:31.881Z,8232.00
2018-06-17T09:45:32.123Z,8160.00
2018-06-17T09:46:32.363Z,8196.00
2018-06-17T09:47:32.589Z,8284.00
2018-06-17T09:48:32.816Z,8360.00
2018-06-17T09:49:33.046Z,8928.00
2018-06-17T09:50:33.285Z,9284.00
2018-06-17T09:51:33.512Z,9904.00
2018-06-17T09:52:33.744Z,10452.00
2018-06-17T09:53:33.981Z,11292.00
2018-06-17T09:54:34.210Z,11628.00
2018-06-17T09:55:34.442Z,9628.00
2018-06-17T09:56:34.680Z,12204.00
2018-06-17T09:57:34.915Z,12440.00
2018-06-17T09:58:35.200Z,11272.00
2018-06-17T09:59:35.386Z,10216.00
2018-06-17T10:00:35.624Z,10816.00
2018-06-17T10:01:35.880Z,11024.00
2018-06-17T10:02:36.080Z,10020.00
2018-06-17T10:03:36.318Z,9972.00
2018-06-17T10:04:36.548Z,9956.00
2018-06-17T10:05:36.787Z,10108.00
2018-06-17T10:06:37.016Z,10352.00
2018-06-17T10:07:37.247Z,10496.00
2018-06-17T10:08:37.483Z,10580.00
2018-06-17T10:09:37.713Z,10508.00
2018-06-17T10:10:37.945Z,10468.00
2018-06-17T10:11:38.181Z,10612.00
2018-06-17T10:12:38.420Z,12472.00
2018-06-17T10:13:38.650Z,13692.00
2018-06-17T10:14:38.884Z,12756.00
2018-06-17T10:15:39.121Z,14036.00
2018-06-17T10:16:39.353Z,13360.00
2018-06-17T10:17:39.592Z,10804.00
2018-06-17T10:18:39.827Z,9856.00
2018-06-17T10:19:40.062Z,9336.00
2018-06-17T10:20:40.292Z,8812.00
2018-06-17T10:21:40.526Z,8576.00
2018-06-17T10:22:40.760Z,8696.00
2018-06-17T10:23:40.998Z,8928.00
2018-06-17T10:24:41.230Z,9092.00
2018-06-17T10:25:41.468Z,9040.00
2018-06-17T10:26:41.707Z,8908.00
2018-06-17T10:27:41.945Z,8840.00
2018-06-17T10:28:42.188Z,8884.00
2018-06-17T10:29:42.431Z,9096.00
2018-06-17T10:30:42.660Z,9296.00
2018-06-17T10:31:42.893Z,9452.00
2018-06-17T10:32:43.127Z,9620.00
2018-06-17T10:33:43.409Z,9756.00
2018-06-17T10:34:43.630Z,9988.00
2018-06-17T10:35:43.838Z,10200.00
2018-06-17T10:36:44.078Z,10292.00
2018-06-17T10:37:44.312Z,10356.00
2018-06-17T10:38:44.550Z,10732.00
2018-06-17T10:39:44.789Z,10232.00
2018-06-17T10:40:45.026Z,9920.00
2018-06-17T10:41:45.255Z,9776.00
2018-06-17T10:42:45.489Z,9608.00
2018-06-17T10:43:45.735Z,9364.00
2018-06-17T10:44:45.966Z,9080.00
2018-06-17T10:45:46.202Z,8748.00
2018-06-17T10:46:46.441Z,8400.00
2018-06-17T10:47:46.680Z,7992.00
2018-06-17T10:48:46.912Z,7556.00
2018-06-17T10:49:47.149Z,7164.00
2018-06-17T10:50:47.390Z,6864.00
2018-06-17T10:51:47.625Z,6656.00
2018-06-17T10:52:47.863Z,6544.00
2018-06-17T10:53:48.099Z,6476.00
2018-06-17T10:54:48.338Z,6456.00
2018-06-17T10:55:48.634Z,6540.00
2018-06-17T10:56:48.816Z,6760.00
2018-06-17T10:57:49.050Z,7100.00
2018-06-17T10:58:49.288Z,7512.00
2018-06-17T10:59:49.520Z,7952.00
2018-06-17T11:00:49.764Z,8356.00
2018-06-17T11:01:50.001Z,8760.00
2018-06-17T11:02:50.239Z,9152.00
2018-06-17T11:03:50.481Z,9532.00
2018-06-17T11:04:50.711Z,9972.00
2018-06-17T11:05:50.942Z,10452.00
2018-06-17T11:06:51.174Z,10912.00
2018-06-17T11:07:51.417Z,11292.00
2018-06-17T11:08:51.657Z,11524.00
2018-06-17T11:09:51.900Z,11760.00
2018-06-17T11:10:52.158Z,12044.00
2018-06-17T11:11:52.386Z,12376.00
2018-06-17T11:12:52.691Z,12520.00
2018-06-17T11:13:52.833Z,12716.00
2018-06-17T11:14:53.084Z,12888.00
2018-06-17T11:15:53.319Z,13092.00
2018-06-17T11:16:53.568Z,13004.00
2018-06-17T11:17:53.809Z,12960.00
2018-06-17T11:18:54.045Z,13164.00
2018-06-17T11:19:54.286Z,12904.00
2018-06-17T11:20:54.524Z,12704.00
2018-06-17T11:21:54.771Z,12720.00
2018-06-17T11:22:55.025Z,12856.00
2018-06-17T11:23:55.261Z,14248.00
2018-06-17T11:24:55.498Z,14148.00
2018-06-17T11:25:55.736Z,13412.00
2018-06-17T11:26:55.968Z,13548.00
2018-06-17T11:27:56.207Z,13684.00
2018-06-17T11:28:56.458Z,13892.00
2018-06-17T11:29:56.698Z,14120.00
2018-06-17T11:30:56.933Z,14388.00
2018-06-17T11:31:57.276Z,14540.00
2018-06-17T11:32:57.429Z,14456.00
2018-06-17T11:33:57.671Z,14400.00
2018-06-17T11:34:57.908Z,14388.00
2018-06-17T11:35:58.145Z,15028.00
2018-06-17T11:36:58.384Z,14580.00
2018-06-17T11:37:58.620Z,14716.00
2018-06-17T11:38:58.907Z,16448.00
2018-06-17T11:39:59.098Z,14548.00
2018-06-17T11:40:59.344Z,14260.00
2018-06-17T11:41:59.584Z,14128.00
2018-06-17T11:42:59.825Z,13876.00
2018-06-17T11:44:00.064Z,13576.00
2018-06-17T11:45:00.297Z,13320.00
2018-06-17T11:46:00.534Z,13048.00
2018-06-17T11:47:00.773Z,12820.00
2018-06-17T11:48:01.019Z,12884.00
2018-06-17T11:49:01.264Z,12616.00
2018-06-17T11:50:01.506Z,12852.00
2018-06-17T11:51:01.809Z,12720.00
2018-06-17T11:52:02.042Z,12612.00
2018-06-17T11:53:02.281Z,12976.00
2018-06-17T11:54:02.511Z,12396.00
2018-06-17T11:55:02.756Z,12488.00
2018-06-17T11:56:02.996Z,12440.00
2018-06-17T11:57:03.233Z,12632.00
2018-06-17T11:58:03.467Z,12936.00
2018-06-17T11:59:03.704Z,13892.00
2018-06-17T12:00:03.958Z,13216.00
2018-06-17T12:01:04.196Z,13860.00
2018-06-17T12:02:04.437Z,13812.00
2018-06-17T12:03:04.672Z,12928.00
2018-06-17T12:04:04.909Z,12712.00
2018-06-17T12:05:05.149Z,12520.00
2018-06-17T12:06:05.384Z,12496.00
2018-06-17T12:07:05.622Z,12552.00
2018-06-17T12:08:05.865Z,12576.00
2018-06-17T12:09:06.099Z,12612.00
2018-06-17T12:10:06.345Z,12456.00
2018-06-17T12:11:06.579Z,12252.00
2018-06-17T12:12:06.813Z,11992.00
2018-06-17T12:13:07.054Z,11800.00
2018-06-17T12:14:07.290Z,11960.00
2018-06-17T12:15:07.525Z,11812.00
2018-06-17T12:16:07.763Z,11884.00
2018-06-17T12:17:07.999Z,12108.00
2018-06-17T12:18:08.237Z,12500.00
2018-06-17T12:19:08.473Z,14704.00